createdAt,value
2023-05-03T00:00:41.832Z,0.98
2023-05-03T00:03:08.308Z,0.35
2023-05-03T00:05:34.972Z,0.15
2023-05-03T00:08:02.297Z,0.25
2023-05-03T00:10:29.396Z,0.38
2023-05-03T00:12:56.746Z,0.55
2023-05-03T00:15:23.395Z,0.13
2023-05-03T00:17:50.673Z,0.20
2023-05-03T00:20:19.163Z,0.38
2023-05-03T00:22:45.726Z,0.20
2023-05-03T00:25:12.530Z,0.55
2023-05-03T00:27:38.988Z,0.35
2023-05-03T00:30:06.399Z,0.38
2023-05-03T00:32:33.257Z,0.28
2023-05-03T00:34:59.837Z,0.43
2023-05-03T00:37:26.978Z,0.10
2023-05-03T00:39:53.753Z,0.43
2023-05-03T00:42:20.448Z,0.30
2023-05-03T00:44:46.980Z,0.20
2023-05-03T00:47:15.724Z,0.30
2023-05-03T00:49:42.831Z,0.20
2023-05-03T00:52:10.113Z,0.50
2023-05-03T00:54:37.938Z,0.60
2023-05-03T00:57:05.126Z,0.22
2023-05-03T00:59:32.678Z,0.95
2023-05-03T01:02:00.156Z,1.38
2023-05-03T01:04:28.124Z,0.40
2023-05-03T01:07:11.600Z,0.38
2023-05-03T01:10:06.388Z,1.15
2023-05-03T01:13:10.664Z,0.38
2023-05-03T01:16:01.966Z,0.45
2023-05-03T01:18:33.075Z,0.43
2023-05-03T01:21:04.493Z,0.47
2023-05-03T01:23:40.869Z,0.43
2023-05-03T01:26:21.403Z,0.75
2023-05-03T01:28:48.102Z,0.75
2023-05-03T01:31:21.693Z,0.35
2023-05-03T01:34:21.878Z,0.25
2023-05-03T01:36:49.482Z,1.33
2023-05-03T01:39:26.111Z,0.43
2023-05-03T01:41:54.070Z,0.28
2023-05-03T01:44:22.761Z,0.20
2023-05-03T01:46:49.830Z,0.20
2023-05-03T01:49:16.516Z,0.65
2023-05-03T01:51:42.949Z,0.40
2023-05-03T01:54:11.669Z,0.30
2023-05-03T01:56:38.065Z,0.60
2023-05-03T01:59:05.095Z,0.35
2023-05-03T02:01:31.770Z,0.30
2023-05-03T02:03:58.716Z,0.30
2023-05-03T02:06:26.198Z,0.43
2023-05-03T02:08:53.327Z,0.30
2023-05-03T02:11:21.458Z,0.68
2023-05-03T02:13:50.592Z,0.63
2023-05-03T02:16:18.350Z,0.52
2023-05-03T02:18:45.001Z,0.35
2023-05-03T02:21:11.594Z,0.32
2023-05-03T02:23:38.062Z,0.60
2023-05-03T02:26:05.033Z,0.25
2023-05-03T02:28:32.397Z,0.47
2023-05-03T02:30:58.971Z,0.25
2023-05-03T02:33:25.572Z,0.43
2023-05-03T02:35:52.297Z,0.38
2023-05-03T02:38:18.778Z,0.98
2023-05-03T02:40:45.197Z,0.30
2023-05-03T02:43:11.625Z,0.52
2023-05-03T02:45:38.171Z,0.93
2023-05-03T02:48:04.928Z,0.75
2023-05-03T02:50:31.432Z,0.22
2023-05-03T02:52:58.297Z,0.40
2023-05-03T02:55:26.340Z,0.60
2023-05-03T02:57:52.792Z,0.20
2023-05-03T03:00:20.470Z,0.50
2023-05-03T03:02:47.075Z,0.35
2023-05-03T03:05:13.678Z,0.50
2023-05-03T03:07:45.792Z,0.60
2023-05-03T03:10:14.574Z,0.13
2023-05-03T03:12:41.072Z,0.35
2023-05-03T03:15:13.762Z,0.38
2023-05-03T03:17:40.441Z,1.00
2023-05-03T03:20:12.747Z,0.52
2023-05-03T03:22:45.396Z,0.68
2023-05-03T03:25:11.958Z,1.05
2023-05-03T03:27:39.856Z,0.80
2023-05-03T03:30:08.243Z,0.20
2023-05-03T03:32:40.788Z,1.35
2023-05-03T03:35:13.149Z,0.30
2023-05-03T03:37:40.132Z,0.30
2023-05-03T03:40:07.994Z,0.35
2023-05-03T03:42:35.891Z,0.40
2023-05-03T03:45:02.594Z,0.57
2023-05-03T03:47:29.060Z,0.45
2023-05-03T03:49:55.969Z,0.30
2023-05-03T03:52:22.507Z,0.25
2023-05-03T03:54:49.599Z,0.40
2023-05-03T03:57:16.239Z,0.52
2023-05-03T03:59:42.849Z,0.30
2023-05-03T04:02:09.412Z,0.35
2023-05-03T04:04:37.270Z,0.40
2023-05-03T04:07:04.661Z,0.32
2023-05-03T04:09:31.267Z,0.47
2023-05-03T04:11:57.801Z,0.77
2023-05-03T04:14:25.132Z,0.45
2023-05-03T04:16:52.809Z,0.50
2023-05-03T04:19:19.492Z,0.30
2023-05-03T04:21:47.098Z,0.57
2023-05-03T04:24:17.451Z,0.40
2023-05-03T04:26:44.918Z,0.40
2023-05-03T04:29:20.807Z,0.20
2023-05-03T04:31:47.496Z,0.50
2023-05-03T04:34:22.745Z,0.50
2023-05-03T04:36:52.648Z,0.30
2023-05-03T04:39:19.951Z,0.35
2023-05-03T04:41:47.864Z,0.30
2023-05-03T04:44:14.595Z,0.43
2023-05-03T04:46:43.329Z,1.10
2023-05-03T04:49:10.066Z,0.32
2023-05-03T04:51:36.719Z,0.38
2023-05-03T04:54:03.339Z,0.68
2023-05-03T04:56:30.737Z,0.30
2023-05-03T04:59:08.535Z,0.22
2023-05-03T05:01:36.160Z,0.52
2023-05-03T05:04:04.656Z,0.45
2023-05-03T05:06:38.717Z,0.50
2023-05-03T05:09:21.314Z,0.38
2023-05-03T05:11:51.730Z,0.77
2023-05-03T05:17:05.642Z,0.38
2023-05-03T05:19:32.716Z,0.98
2023-05-03T05:21:59.547Z,0.38
2023-05-03T05:24:36.250Z,0.52
2023-05-03T05:27:02.967Z,0.63
2023-05-03T05:29:30.882Z,0.32
2023-05-03T05:31:59.795Z,0.32
2023-05-03T05:34:26.627Z,0.20
2023-05-03T05:36:53.632Z,0.35
2023-05-03T05:39:23.534Z,0.60
2023-05-03T05:42:00.154Z,0.43
2023-05-03T05:44:26.979Z,0.32
2023-05-03T05:46:57.075Z,0.20
2023-05-03T05:49:24.318Z,0.10
2023-05-03T05:51:50.851Z,0.38
2023-05-03T05:54:17.295Z,0.43
2023-05-03T05:56:44.452Z,0.22
2023-05-03T05:59:11.137Z,0.98
2023-05-03T06:01:41.665Z,0.32
2023-05-03T06:04:09.368Z,0.25
2023-05-03T06:06:36.330Z,0.30
2023-05-03T06:09:16.607Z,0.45
2023-05-03T06:11:50.485Z,0.65
2023-05-03T06:14:19.299Z,0.20
2023-05-03T06:16:46.153Z,0.20
2023-05-03T06:19:13.965Z,0.25
2023-05-03T06:21:42.365Z,0.35
2023-05-03T06:24:09.958Z,0.40
2023-05-03T06:26:41.001Z,0.20
2023-05-03T06:29:08.158Z,0.20
2023-05-03T06:31:34.951Z,0.55
2023-05-03T06:34:02.029Z,0.17
2023-05-03T06:36:31.635Z,0.13
2023-05-03T06:38:58.362Z,0.70
2023-05-03T06:41:24.859Z,0.57
2023-05-03T06:43:51.419Z,0.20
2023-05-03T06:46:20.207Z,0.20
2023-05-03T06:48:48.206Z,0.25
2023-05-03T06:51:14.843Z,0.13
2023-05-03T06:53:41.778Z,0.20
2023-05-03T06:56:08.201Z,0.22
2023-05-03T06:58:34.621Z,0.35
2023-05-03T07:01:01.870Z,0.32
2023-05-03T07:03:28.519Z,0.57
2023-05-03T07:05:55.162Z,0.30
2023-05-03T07:08:21.614Z,0.20
2023-05-03T07:10:48.054Z,0.35
2023-05-03T07:13:14.646Z,0.13
2023-05-03T07:15:41.286Z,0.63
2023-05-03T07:18:08.129Z,0.35
2023-05-03T07:20:34.621Z,0.13
2023-05-03T07:23:01.712Z,0.25
2023-05-03T07:25:28.322Z,0.20
2023-05-03T07:27:54.881Z,0.60
2023-05-03T07:30:22.348Z,0.25
2023-05-03T07:32:49.021Z,0.30
2023-05-03T07:35:16.713Z,0.40
2023-05-03T07:37:43.344Z,0.13
2023-05-03T07:40:10.412Z,0.47
2023-05-03T07:42:36.834Z,0.52
2023-05-03T07:45:03.675Z,0.20
2023-05-03T07:47:30.354Z,0.45
2023-05-03T07:49:56.845Z,0.10
2023-05-03T07:52:23.327Z,0.30
2023-05-03T07:54:49.954Z,0.17
2023-05-03T07:57:16.557Z,0.60
2023-05-03T07:59:43.475Z,0.43
2023-05-03T08:02:10.122Z,0.25
2023-05-03T08:04:36.727Z,0.15
2023-05-03T08:07:04.145Z,0.25
2023-05-03T08:09:31.057Z,0.30
2023-05-03T08:11:57.588Z,0.80
2023-05-03T08:14:24.079Z,0.20
2023-05-03T08:16:51.585Z,0.20
2023-05-03T08:19:18.114Z,0.13
2023-05-03T08:21:44.608Z,0.52
2023-05-03T08:24:11.574Z,0.22
2023-05-03T08:26:38.162Z,0.45
2023-05-03T08:29:04.758Z,0.20
2023-05-03T08:31:31.359Z,0.20
2023-05-03T08:33:58.020Z,0.85
2023-05-03T08:36:25.074Z,0.30
2023-05-03T08:38:51.548Z,0.20
2023-05-03T08:41:30.732Z,0.75
2023-05-03T08:44:00.980Z,0.40
2023-05-03T08:46:28.307Z,0.20
2023-05-03T08:48:57.487Z,0.30
2023-05-03T08:51:24.956Z,0.10
2023-05-03T08:53:51.573Z,0.20
2023-05-03T08:56:28.729Z,0.20
2023-05-03T08:58:55.255Z,0.47
2023-05-03T09:01:22.149Z,0.15
2023-05-03T09:03:51.344Z,0.10
2023-05-03T09:06:27.771Z,0.20
2023-05-03T09:08:54.966Z,0.20
2023-05-03T09:11:39.735Z,0.30
2023-05-03T09:14:11.891Z,0.13
2023-05-03T09:16:40.119Z,0.13
2023-05-03T09:19:09.444Z,0.22
2023-05-03T09:21:36.455Z,0.40
2023-05-03T09:24:14.768Z,0.13
2023-05-03T09:26:42.262Z,0.30
2023-05-03T09:29:09.294Z,0.63
2023-05-03T09:31:37.342Z,0.20
2023-05-03T09:34:22.037Z,0.30
2023-05-03T09:36:48.583Z,0.20
2023-05-03T09:39:19.121Z,0.47
2023-05-03T09:41:46.592Z,0.25
2023-05-03T09:44:17.666Z,0.40
2023-05-03T09:47:03.836Z,0.20
2023-05-03T09:49:32.403Z,0.25
2023-05-03T09:52:11.045Z,0.25
2023-05-03T09:54:39.235Z,0.30
2023-05-03T09:57:07.526Z,0.30
2023-05-03T09:59:37.417Z,0.22
2023-05-03T10:02:07.349Z,1.38
2023-05-03T10:04:47.562Z,0.30
2023-05-03T10:07:18.665Z,0.80
2023-05-03T10:09:47.955Z,0.20
2023-05-03T10:12:18.133Z,0.68
2023-05-03T10:14:47.791Z,0.30
2023-05-03T10:17:31.993Z,0.20
2023-05-03T10:20:16.792Z,0.68
2023-05-03T10:23:03.220Z,0.55
2023-05-03T10:25:30.609Z,0.38
2023-05-03T10:28:08.952Z,0.35
2023-05-03T10:30:37.516Z,0.40
2023-05-03T10:33:09.904Z,0.30
2023-05-03T10:35:39.462Z,0.30
2023-05-03T10:38:21.845Z,0.63
2023-05-03T10:40:48.722Z,0.65
2023-05-03T10:43:30.628Z,0.57
2023-05-03T10:46:08.890Z,0.30
2023-05-03T10:48:35.702Z,0.47
2023-05-03T10:51:33.524Z,0.20
2023-05-03T10:54:00.025Z,0.57
2023-05-03T10:56:26.505Z,0.30
2023-05-03T10:58:57.028Z,0.50
2023-05-03T11:01:24.780Z,0.40
2023-05-03T11:04:02.472Z,1.73
2023-05-03T11:06:36.557Z,0.50
2023-05-03T11:09:07.936Z,0.50
2023-05-03T11:11:39.066Z,0.25
2023-05-03T11:14:16.778Z,0.45
2023-05-03T11:16:50.948Z,0.80
2023-05-03T11:19:17.781Z,0.40
2023-05-03T11:21:46.310Z,0.30
2023-05-03T11:24:14.265Z,0.40
2023-05-03T11:26:41.940Z,0.30
2023-05-03T11:29:12.992Z,0.32
2023-05-03T11:31:48.168Z,0.47
2023-05-03T11:34:16.573Z,0.73
2023-05-03T11:36:43.164Z,0.50
2023-05-03T11:39:18.827Z,0.30
2023-05-03T11:42:01.303Z,0.55
2023-05-03T11:44:27.838Z,0.38
2023-05-03T11:46:55.156Z,0.60
2023-05-03T11:49:24.118Z,0.50
2023-05-03T11:51:54.902Z,0.40
2023-05-03T11:54:26.983Z,1.02
2023-05-03T11:56:57.507Z,0.40
2023-05-03T11:59:34.708Z,0.47
2023-05-03T12:02:04.314Z,0.60
2023-05-03T12:04:31.581Z,0.63
2023-05-03T12:06:59.108Z,0.32
2023-05-03T12:09:27.513Z,0.40
2023-05-03T12:11:55.141Z,1.00
2023-05-03T12:14:23.039Z,0.70
2023-05-03T12:16:52.568Z,0.60
2023-05-03T12:22:23.565Z,0.90
2023-05-03T12:24:53.564Z,0.98
2023-05-03T12:27:22.226Z,0.63
2023-05-03T12:34:47.381Z,0.80
2023-05-03T12:37:17.246Z,0.75
2023-05-03T12:39:47.217Z,1.20
2023-05-03T12:42:21.993Z,0.90
2023-05-03T12:44:48.818Z,0.70
2023-05-03T12:47:16.930Z,0.50
2023-05-03T12:49:52.281Z,0.80
2023-05-03T12:52:37.130Z,0.80
2023-05-03T12:55:10.492Z,0.60
2023-05-03T12:57:38.235Z,0.85
2023-05-03T13:00:13.640Z,0.80
2023-05-03T13:03:21.103Z,0.90
2023-05-03T13:05:35.329Z,0.73
2023-05-03T13:08:09.345Z,0.95
2023-05-03T13:10:37.534Z,0.75
2023-05-03T13:13:04.514Z,1.40
2023-05-03T13:15:31.363Z,0.93
2023-05-03T13:18:01.585Z,0.50
2023-05-03T13:20:28.953Z,0.52
2023-05-03T13:22:55.580Z,1.65
2023-05-03T13:25:21.977Z,0.80
2023-05-03T13:27:50.267Z,0.60
2023-05-03T13:30:16.737Z,0.55
2023-05-03T13:32:43.231Z,0.85
2023-05-03T13:35:10.067Z,0.93
2023-05-03T13:37:36.721Z,0.70
2023-05-03T13:40:03.509Z,0.52
2023-05-03T13:42:30.494Z,0.90
2023-05-03T13:44:56.888Z,0.52
2023-05-03T13:47:23.353Z,0.77
2023-05-03T13:49:49.858Z,0.60
2023-05-03T13:52:16.303Z,0.93
2023-05-03T13:54:42.930Z,0.77
2023-05-03T13:57:09.409Z,0.88
2023-05-03T13:59:35.955Z,0.63
2023-05-03T14:02:03.126Z,0.70
2023-05-03T14:04:30.708Z,0.50
2023-05-03T14:06:58.654Z,0.68
2023-05-03T14:09:25.201Z,0.60
2023-05-03T14:11:51.664Z,0.82
2023-05-03T14:14:18.215Z,0.52
2023-05-03T14:16:44.757Z,0.88
2023-05-03T14:19:12.050Z,0.65
2023-05-03T14:21:38.907Z,0.50
2023-05-03T14:24:06.482Z,1.35
2023-05-03T14:26:34.046Z,0.75
2023-05-03T14:29:01.472Z,0.57
2023-05-03T14:31:28.157Z,0.40
2023-05-03T14:33:55.139Z,0.68
2023-05-03T14:36:21.856Z,0.47
2023-05-03T14:38:48.300Z,0.32
2023-05-03T14:41:14.784Z,0.55
2023-05-03T14:43:41.226Z,0.70
2023-05-03T14:46:09.898Z,0.47
2023-05-03T14:48:38.135Z,0.43
2023-05-03T14:51:05.434Z,0.60
2023-05-03T14:53:32.194Z,0.85
2023-05-03T14:55:59.064Z,0.40
2023-05-03T14:58:25.588Z,0.47
2023-05-03T15:00:52.091Z,1.00
2023-05-03T15:03:18.700Z,0.80
2023-05-03T15:05:47.540Z,0.40
2023-05-03T15:08:15.936Z,0.30
2023-05-03T15:10:44.678Z,1.05
2023-05-03T15:13:12.927Z,0.40
2023-05-03T15:15:40.845Z,0.52
2023-05-03T15:18:08.840Z,0.65
2023-05-03T15:20:36.070Z,1.35
2023-05-03T15:23:04.315Z,0.60
2023-05-03T15:25:31.381Z,0.77
2023-05-03T15:27:59.461Z,0.63
2023-05-03T15:30:30.307Z,1.02
2023-05-03T15:32:58.130Z,0.80
2023-05-03T15:35:26.277Z,0.80
2023-05-03T15:37:52.806Z,0.90
2023-05-03T15:40:20.342Z,0.70
2023-05-03T15:42:46.834Z,0.60
2023-05-03T15:45:13.905Z,0.60
2023-05-03T15:47:40.754Z,0.65
2023-05-03T15:50:08.454Z,1.05
2023-05-03T15:52:36.535Z,0.45
2023-05-03T15:55:03.327Z,1.80
2023-05-03T15:57:30.408Z,0.70
2023-05-03T15:59:57.398Z,0.40
2023-05-03T16:02:24.424Z,0.63
2023-05-03T16:04:51.142Z,2.30
2023-05-03T16:07:18.130Z,0.60
2023-05-03T16:09:44.760Z,0.70
2023-05-03T16:12:11.710Z,0.77
2023-05-03T16:14:38.244Z,0.60
2023-05-03T16:17:04.775Z,1.10
2023-05-03T16:19:32.002Z,1.80
2023-05-03T16:21:58.755Z,2.05
2023-05-03T16:24:25.794Z,1.17
2023-05-03T16:26:52.866Z,0.77
2023-05-03T16:29:19.908Z,0.73
2023-05-03T16:31:46.917Z,0.80
2023-05-03T16:34:14.658Z,0.77
2023-05-03T16:36:43.091Z,0.90
2023-05-03T16:39:13.806Z,0.60
2023-05-03T16:41:41.077Z,0.70
2023-05-03T16:44:08.622Z,0.90
2023-05-03T16:46:36.850Z,0.73
2023-05-03T16:49:04.247Z,0.80
2023-05-03T16:51:31.409Z,0.75
2023-05-03T16:54:03.811Z,0.95
2023-05-03T16:56:31.424Z,0.70
2023-05-03T16:58:59.215Z,0.80
2023-05-03T17:01:26.164Z,0.85
2023-05-03T17:03:53.268Z,0.80
2023-05-03T17:06:19.872Z,1.00
2023-05-03T17:08:47.633Z,0.90
2023-05-03T17:11:16.929Z,1.13
2023-05-03T17:13:43.437Z,1.02
2023-05-03T17:16:12.616Z,1.02
2023-05-03T17:18:40.409Z,0.90
2023-05-03T17:21:09.016Z,0.73
2023-05-03T17:23:38.026Z,0.70
2023-05-03T17:26:06.356Z,1.00
2023-05-03T17:28:34.820Z,1.00
2023-05-03T17:31:02.548Z,1.17
2023-05-03T17:33:29.261Z,1.70
2023-05-03T17:35:55.989Z,1.42
2023-05-03T17:38:23.449Z,1.48
2023-05-03T17:40:49.995Z,1.00
2023-05-03T17:43:17.745Z,0.90
2023-05-03T17:45:47.473Z,0.70
2023-05-03T17:48:14.380Z,1.13
2023-05-03T17:50:41.832Z,1.38
2023-05-03T17:53:09.308Z,0.75
2023-05-03T17:55:37.902Z,0.70
2023-05-03T17:58:05.982Z,0.98
2023-05-03T18:00:33.400Z,1.40
2023-05-03T18:03:00.110Z,0.80
2023-05-03T18:05:27.500Z,0.60
2023-05-03T18:07:54.162Z,0.85
2023-05-03T18:10:21.827Z,0.70
2023-05-03T18:12:48.410Z,0.68
2023-05-03T18:15:15.765Z,0.88
2023-05-03T18:17:42.835Z,0.77
2023-05-03T18:20:10.199Z,1.15
2023-05-03T18:22:37.648Z,1.00
2023-05-03T18:25:09.202Z,0.52
2023-05-03T18:27:37.520Z,0.73
2023-05-03T18:30:06.728Z,2.33
2023-05-03T18:32:34.999Z,1.02
2023-05-03T18:35:02.423Z,0.82
2023-05-03T18:37:29.007Z,1.75
2023-05-03T18:39:55.801Z,1.27
2023-05-03T18:42:23.074Z,0.77
2023-05-03T18:44:49.665Z,1.02
2023-05-03T18:47:20.489Z,1.00
2023-05-03T18:49:50.498Z,0.50
2023-05-03T18:52:16.972Z,1.08
2023-05-03T18:54:43.443Z,0.70
2023-05-03T18:57:11.608Z,0.63
2023-05-03T18:59:48.861Z,0.50
2023-05-03T19:02:25.296Z,0.80
2023-05-03T19:04:55.111Z,1.80
2023-05-03T19:07:23.354Z,0.88
2023-05-03T19:09:57.237Z,1.10
2023-05-03T19:12:24.003Z,0.80
2023-05-03T19:14:51.957Z,0.80
2023-05-03T19:17:21.275Z,0.65
2023-05-03T19:19:47.783Z,1.00
2023-05-03T19:22:14.761Z,0.82
2023-05-03T19:24:43.864Z,0.88
2023-05-03T19:27:12.675Z,0.68
2023-05-03T19:29:39.141Z,1.02
2023-05-03T19:32:05.923Z,0.80
2023-05-03T19:34:35.315Z,1.08
2023-05-03T19:37:02.182Z,1.17
2023-05-03T19:39:32.584Z,1.20
2023-05-03T19:42:00.415Z,2.28
2023-05-03T19:44:30.216Z,2.33
2023-05-03T19:46:56.931Z,0.90
2023-05-03T19:49:26.212Z,0.77
2023-05-03T19:51:55.967Z,1.30
2023-05-03T19:54:22.763Z,1.35
2023-05-03T19:56:50.153Z,1.10
2023-05-03T19:59:16.591Z,1.17
2023-05-03T20:01:45.397Z,1.08
2023-05-03T20:04:12.107Z,0.90
2023-05-03T20:06:38.848Z,1.55
2023-05-03T20:09:05.675Z,1.13
2023-05-03T20:11:32.156Z,1.42
2023-05-03T20:13:58.541Z,0.93
2023-05-03T20:16:27.258Z,1.15
2023-05-03T20:18:53.974Z,0.93
2023-05-03T20:21:20.486Z,1.10
2023-05-03T20:23:49.366Z,1.17
2023-05-03T20:26:16.142Z,1.10
2023-05-03T20:28:46.277Z,1.33
2023-05-03T20:31:12.854Z,0.98
2023-05-03T20:33:40.871Z,1.10
2023-05-03T20:36:13.577Z,1.30
2023-05-03T20:38:40.402Z,1.50
2023-05-03T20:41:07.078Z,1.00
2023-05-03T20:43:33.607Z,0.85
2023-05-03T20:46:00.198Z,1.30
2023-05-03T20:48:26.725Z,1.00
2023-05-03T20:50:53.588Z,1.25
2023-05-03T20:53:20.221Z,1.25
2023-05-03T20:55:46.705Z,1.65
2023-05-03T20:58:15.247Z,1.45
2023-05-03T21:00:44.601Z,1.13
2023-05-03T21:03:13.656Z,1.35
2023-05-03T21:05:40.228Z,1.65
2023-05-03T21:08:06.659Z,1.17
2023-05-03T21:10:33.192Z,1.10
2023-05-03T21:12:59.698Z,1.50
2023-05-03T21:15:26.195Z,1.38
2023-05-03T21:17:52.915Z,1.88
2023-05-03T21:20:19.482Z,1.48
2023-05-03T21:22:46.051Z,2.65
2023-05-03T21:25:12.480Z,1.17
2023-05-03T21:27:38.959Z,2.10
2023-05-03T21:30:07.005Z,1.02
2023-05-03T21:32:33.959Z,1.83
2023-05-03T21:35:00.378Z,1.13
2023-05-03T21:37:26.981Z,1.20
2023-05-03T21:40:01.443Z,1.13
2023-05-03T21:42:29.344Z,1.40
2023-05-03T21:44:55.847Z,1.63
2023-05-03T21:47:22.345Z,1.20
2023-05-03T21:49:48.805Z,1.25
2023-05-03T21:52:15.282Z,1.40
2023-05-03T21:54:41.704Z,1.55
2023-05-03T21:57:08.671Z,1.27
2023-05-03T21:59:35.153Z,1.25
2023-05-03T22:02:01.624Z,2.05
2023-05-03T22:04:28.063Z,1.67
2023-05-03T22:06:54.875Z,1.50
2023-05-03T22:09:21.326Z,2.10
2023-05-03T22:11:47.789Z,1.85
2023-05-03T22:14:14.780Z,1.88
2023-05-03T22:16:43.846Z,1.40
2023-05-03T22:19:12.004Z,1.02
2023-05-03T22:21:38.751Z,1.70
2023-05-03T22:24:05.558Z,1.70
2023-05-03T22:26:32.060Z,1.65
2023-05-03T22:28:58.618Z,1.73
2023-05-03T22:31:26.621Z,1.73
2023-05-03T22:33:53.308Z,1.58
2023-05-03T22:36:19.827Z,3.42
2023-05-03T22:38:49.145Z,1.40
2023-05-03T22:41:16.335Z,1.65
2023-05-03T22:43:42.902Z,2.45
2023-05-03T22:46:09.382Z,1.55
2023-05-03T22:48:35.846Z,1.58
2023-05-03T22:51:02.788Z,1.73
2023-05-03T22:53:29.277Z,1.83
2023-05-03T22:55:57.179Z,2.78
2023-05-03T22:58:24.313Z,1.73
2023-05-03T23:00:50.721Z,1.92
2023-05-03T23:03:17.558Z,2.50
2023-05-03T23:05:44.170Z,2.05
2023-05-03T23:08:11.315Z,2.20
2023-05-03T23:10:37.725Z,1.77
2023-05-03T23:13:04.262Z,2.15
2023-05-03T23:15:30.768Z,2.72
2023-05-03T23:17:57.879Z,1.90
2023-05-03T23:20:26.009Z,3.35
2023-05-03T23:22:55.012Z,2.30
2023-05-03T23:25:21.853Z,2.63
2023-05-03T23:27:48.970Z,2.42
2023-05-03T23:30:15.943Z,2.60
2023-05-03T23:32:42.915Z,2.20
2023-05-03T23:35:10.384Z,2.72
2023-05-03T23:37:37.461Z,2.65
2023-05-03T23:40:06.095Z,3.53
2023-05-03T23:42:32.791Z,2.80
2023-05-03T23:44:59.652Z,2.85
2023-05-03T23:47:26.108Z,3.03
2023-05-03T23:49:52.680Z,2.97
2023-05-03T23:52:20.342Z,3.15
2023-05-03T23:54:46.978Z,2.80
2023-05-03T23:57:14.055Z,2.90
2023-05-03T23:59:40.489Z,2.95
